Terminal Aerodrome Forecast
Issued by NWS Jacksonville, FL

Home | Current Version | Previous Version | Text Only | Print | Product List | Glossary On
Versions: 1 2 3 4 5 6 7 8 9 10 11 12 13 14 15 16 17 18 19 20 21
098
FTUS42 KJAX 032341
TAFGNV
TAF
KGNV 032341Z 0400/0424 06005KT P6SM FEW035 SCT100
     FM040900 06003KT 4SM BR SCT015
     FM041400 13011KT P6SM SCT030 BKN060=

USA.gov is the U.S. government's official web portal to all federal, state and local government web resources and services.